createdAt,value
2022-08-20T00:00:44.208Z,21.70
2022-08-20T00:03:11.542Z,21.70
2022-08-20T00:05:38.507Z,21.70
2022-08-20T00:08:04.402Z,21.70
2022-08-20T00:10:30.319Z,21.60
2022-08-20T00:12:54.924Z,21.60
2022-08-20T00:15:24.482Z,21.60
2022-08-20T00:17:48.441Z,21.50
2022-08-20T00:20:15.136Z,21.50
2022-08-20T00:22:38.936Z,21.60
2022-08-20T00:25:02.898Z,21.60
2022-08-20T00:27:26.515Z,21.60
2022-08-20T00:29:50.139Z,21.50
2022-08-20T00:32:15.160Z,21.50
2022-08-20T00:34:38.836Z,21.40
2022-08-20T00:37:02.512Z,21.40
2022-08-20T00:39:26.129Z,21.40
2022-08-20T00:41:49.782Z,21.50
2022-08-20T00:44:16.956Z,21.40
2022-08-20T00:46:43.511Z,21.40
2022-08-20T00:49:12.471Z,21.30
2022-08-20T00:51:41.611Z,21.40
2022-08-20T00:54:11.596Z,21.40
2022-08-20T00:56:36.507Z,21.40
2022-08-20T00:59:00.698Z,21.40
2022-08-20T01:01:24.448Z,21.40
2022-08-20T01:03:48.133Z,21.40
2022-08-20T01:06:13.151Z,21.40
2022-08-20T01:08:37.312Z,21.40
2022-08-20T01:11:10.018Z,21.40
2022-08-20T01:13:33.794Z,21.30
2022-08-20T01:15:58.260Z,21.30
2022-08-20T01:18:26.831Z,21.30
2022-08-20T01:20:53.958Z,21.20
2022-08-20T01:23:28.170Z,21.20
2022-08-20T01:26:00.324Z,21.20
2022-08-20T01:28:31.827Z,21.20
2022-08-20T01:30:56.335Z,21.20
2022-08-20T01:33:20.771Z,21.20
2022-08-20T01:35:45.807Z,21.20
2022-08-20T01:38:10.947Z,21.20
2022-08-20T01:40:56.505Z,21.20
2022-08-20T01:43:21.400Z,21.20
2022-08-20T01:45:46.291Z,21.00
2022-08-20T01:48:14.472Z,21.10
2022-08-20T01:50:43.375Z,21.10
2022-08-20T01:53:16.346Z,21.10
2022-08-20T01:55:40.334Z,21.00
2022-08-20T01:58:05.761Z,21.00
2022-08-20T02:00:29.794Z,21.00
2022-08-20T02:02:53.475Z,20.90
2022-08-20T02:05:18.094Z,20.90
2022-08-20T02:07:41.935Z,20.90
2022-08-20T02:10:08.299Z,20.80
2022-08-20T02:12:31.951Z,20.80
2022-08-20T02:14:57.444Z,20.80
2022-08-20T02:17:23.706Z,20.80
2022-08-20T02:19:51.056Z,20.80
2022-08-20T02:22:22.133Z,20.80
2022-08-20T02:24:45.896Z,20.80
2022-08-20T02:27:09.517Z,20.80
2022-08-20T02:29:33.294Z,20.70
2022-08-20T02:32:24.450Z,20.70
2022-08-20T02:34:42.285Z,20.70
2022-08-20T02:37:08.707Z,20.70
2022-08-20T02:39:32.715Z,20.80
2022-08-20T02:41:56.453Z,20.80
2022-08-20T02:44:21.072Z,20.80
2022-08-20T02:46:44.695Z,20.90
2022-08-20T02:49:09.822Z,20.90
2022-08-20T02:51:33.446Z,20.90
2022-08-20T02:53:57.144Z,20.90
2022-08-20T02:56:21.029Z,20.90
2022-08-20T02:58:44.918Z,20.90
2022-08-20T03:01:19.169Z,20.80
2022-08-20T03:03:44.379Z,20.80
2022-08-20T03:06:11.151Z,20.90
2022-08-20T03:08:35.275Z,20.90
2022-08-20T03:10:59.130Z,20.90
2022-08-20T03:13:24.412Z,20.90
2022-08-20T03:15:57.941Z,20.90
2022-08-20T03:18:24.146Z,20.90
2022-08-20T03:20:52.109Z,20.90
2022-08-20T03:23:19.896Z,20.90
2022-08-20T03:25:44.034Z,20.80
2022-08-20T03:28:08.491Z,20.90
2022-08-20T03:30:33.082Z,20.80
2022-08-20T03:32:57.279Z,20.80
2022-08-20T03:35:25.058Z,20.80
2022-08-20T03:37:48.941Z,20.80
2022-08-20T03:40:19.794Z,20.80
2022-08-20T03:42:43.648Z,20.80
2022-08-20T03:45:09.187Z,20.80
2022-08-20T03:47:32.915Z,20.80
2022-08-20T03:50:00.444Z,20.80
2022-08-20T03:52:24.115Z,20.70
2022-08-20T03:54:47.747Z,20.70
2022-08-20T03:57:15.594Z,20.80
2022-08-20T03:59:39.242Z,20.80
2022-08-20T04:02:02.965Z,20.80
2022-08-20T04:04:26.789Z,20.70
2022-08-20T04:06:50.550Z,20.70
2022-08-20T04:09:14.496Z,20.60
2022-08-20T04:11:38.247Z,20.60
2022-08-20T04:14:03.239Z,20.60
2022-08-20T04:16:28.580Z,20.60
2022-08-20T04:19:01.335Z,20.60
2022-08-20T04:21:26.415Z,20.70
2022-08-20T04:23:56.670Z,20.60
2022-08-20T04:26:21.695Z,20.70
2022-08-20T04:28:45.327Z,20.70
2022-08-20T04:31:12.980Z,20.70
2022-08-20T04:33:36.632Z,20.60
2022-08-20T04:36:02.812Z,20.70
2022-08-20T04:38:26.455Z,20.70
2022-08-20T04:41:10.103Z,20.80
2022-08-20T04:43:46.190Z,20.70
2022-08-20T04:46:11.684Z,20.70
2022-08-20T04:48:36.139Z,20.70
2022-08-20T04:51:02.554Z,20.70
2022-08-20T04:53:30.111Z,20.70
2022-08-20T04:55:55.678Z,20.70
2022-08-20T04:58:23.095Z,20.80
2022-08-20T05:00:49.257Z,20.70
2022-08-20T05:03:14.368Z,20.70
2022-08-20T05:05:38.283Z,20.60
2022-08-20T05:08:02.719Z,20.60
2022-08-20T05:10:26.859Z,20.60
2022-08-20T05:12:56.715Z,20.60
2022-08-20T05:15:21.809Z,20.70
2022-08-20T05:17:45.671Z,20.70
2022-08-20T05:20:16.610Z,20.70
2022-08-20T05:22:40.387Z,20.70
2022-08-20T05:25:04.477Z,20.70
2022-08-20T05:27:28.256Z,20.80
2022-08-20T05:29:53.432Z,20.80
2022-08-20T05:32:17.939Z,20.80
2022-08-20T05:34:41.592Z,20.80
2022-08-20T05:37:07.723Z,20.80
2022-08-20T05:39:35.490Z,20.80
2022-08-20T05:42:01.084Z,20.80
2022-08-20T05:44:24.715Z,20.80
2022-08-20T05:46:49.651Z,20.80
2022-08-20T05:49:22.589Z,20.90
2022-08-20T05:51:46.668Z,20.90
2022-08-20T05:54:12.467Z,20.90
2022-08-20T05:56:37.340Z,20.90
2022-08-20T05:59:03.976Z,20.90
2022-08-20T06:01:27.740Z,21.00
2022-08-20T06:04:08.720Z,21.00
2022-08-20T06:06:44.659Z,21.00
2022-08-20T06:09:12.111Z,21.00
2022-08-20T06:11:37.419Z,21.00
2022-08-20T06:14:01.566Z,21.00
2022-08-20T06:16:25.175Z,21.10
2022-08-20T06:18:52.820Z,21.10
2022-08-20T06:21:21.724Z,21.10
2022-08-20T06:23:56.451Z,21.10
2022-08-20T06:26:24.167Z,21.10
2022-08-20T06:28:54.096Z,21.10
2022-08-20T06:31:17.855Z,21.10
2022-08-20T06:33:42.467Z,21.10
2022-08-20T06:36:07.083Z,21.10
2022-08-20T06:38:32.646Z,21.10
2022-08-20T06:40:56.247Z,21.20
2022-08-20T06:43:21.502Z,21.20
2022-08-20T06:45:45.139Z,21.20
2022-08-20T06:48:15.374Z,21.30
2022-08-20T06:50:47.972Z,21.20
2022-08-20T06:53:14.736Z,21.30
2022-08-20T06:55:41.700Z,21.20
2022-08-20T06:58:30.464Z,21.30
2022-08-20T07:01:04.924Z,21.20
2022-08-20T07:03:34.449Z,21.30
2022-08-20T07:05:59.366Z,21.20
2022-08-20T07:08:23.212Z,21.20
2022-08-20T07:10:47.203Z,21.20
2022-08-20T07:13:11.548Z,21.30
2022-08-20T07:15:35.356Z,21.30
2022-08-20T07:18:04.763Z,21.40
2022-08-20T07:20:29.499Z,21.40
2022-08-20T07:22:53.308Z,21.40
2022-08-20T07:25:22.574Z,21.50
2022-08-20T07:27:47.235Z,21.50
2022-08-20T07:30:32.391Z,21.50
2022-08-20T07:33:17.737Z,21.50
2022-08-20T07:35:42.566Z,21.60
2022-08-20T07:38:07.388Z,21.70
2022-08-20T07:40:36.148Z,21.70
2022-08-20T07:43:02.999Z,21.80
2022-08-20T07:45:27.464Z,21.80
2022-08-20T07:47:53.655Z,21.80
2022-08-20T07:50:21.979Z,21.80
2022-08-20T07:52:45.747Z,21.80
2022-08-20T07:55:12.827Z,21.90
2022-08-20T07:57:36.523Z,21.90
2022-08-20T08:00:00.448Z,21.90
2022-08-20T08:02:24.252Z,21.90
2022-08-20T08:04:47.843Z,21.80
2022-08-20T08:07:13.111Z,21.70
2022-08-20T08:09:37.486Z,21.70
2022-08-20T08:12:03.077Z,21.80
2022-08-20T08:14:31.537Z,21.80
2022-08-20T08:16:57.349Z,21.90
2022-08-20T08:19:21.452Z,21.80
2022-08-20T08:21:45.589Z,21.90
2022-08-20T08:24:11.702Z,21.90
2022-08-20T08:26:37.287Z,21.90
2022-08-20T08:29:00.903Z,22.00
2022-08-20T08:31:25.696Z,22.00
2022-08-20T08:33:49.302Z,22.00
2022-08-20T08:36:16.334Z,22.10
2022-08-20T08:38:45.163Z,22.30
2022-08-20T08:41:19.118Z,22.30
2022-08-20T08:43:43.524Z,22.30
2022-08-20T08:46:12.434Z,22.30
2022-08-20T08:48:39.719Z,22.30
2022-08-20T08:51:07.564Z,22.30
2022-08-20T08:53:38.119Z,22.40
2022-08-20T08:56:03.103Z,22.50
2022-08-20T08:58:28.182Z,22.50
2022-08-20T09:00:56.088Z,22.60
2022-08-20T09:03:29.375Z,22.70
2022-08-20T09:05:58.592Z,22.80
2022-08-20T09:08:28.012Z,22.80
2022-08-20T09:10:52.311Z,22.80
2022-08-20T09:13:15.980Z,22.90
2022-08-20T09:15:40.987Z,22.90
2022-08-20T09:18:04.784Z,23.00
2022-08-20T09:20:28.702Z,23.10
2022-08-20T09:22:52.476Z,23.10
2022-08-20T09:25:16.277Z,23.00
2022-08-20T09:27:39.935Z,23.00
2022-08-20T09:30:08.983Z,23.00
2022-08-20T09:32:34.088Z,23.00
2022-08-20T09:34:58.962Z,23.00
2022-08-20T09:37:23.456Z,23.00
2022-08-20T09:39:48.655Z,23.00
2022-08-20T09:42:14.843Z,23.00
2022-08-20T09:44:38.732Z,23.00
2022-08-20T09:47:02.387Z,22.90
2022-08-20T09:49:27.463Z,22.90
2022-08-20T09:51:51.235Z,22.80
2022-08-20T09:54:15.056Z,22.90
2022-08-20T09:56:38.723Z,23.00
2022-08-20T09:59:03.016Z,22.90
2022-08-20T10:01:26.848Z,23.00
2022-08-20T10:03:51.406Z,23.00
2022-08-20T10:06:17.913Z,23.20
2022-08-20T10:08:41.742Z,23.20
2022-08-20T10:11:05.556Z,23.30
2022-08-20T10:13:29.182Z,23.40
2022-08-20T10:15:52.843Z,23.50
2022-08-20T10:18:16.554Z,23.50
2022-08-20T10:20:40.332Z,23.40
2022-08-20T10:23:06.312Z,23.60
2022-08-20T10:25:30.051Z,23.70
2022-08-20T10:27:53.762Z,23.60
2022-08-20T10:30:17.556Z,23.60
2022-08-20T10:32:41.198Z,23.80
2022-08-20T10:35:06.568Z,23.80
2022-08-20T10:37:30.240Z,23.80
2022-08-20T10:39:55.982Z,23.80
2022-08-20T10:42:19.735Z,23.90
2022-08-20T10:44:43.619Z,23.90
2022-08-20T10:47:17.966Z,24.00
2022-08-20T10:49:41.696Z,24.10
2022-08-20T10:52:06.200Z,24.10
2022-08-20T10:54:29.913Z,24.10
2022-08-20T10:56:54.931Z,24.00
2022-08-20T10:59:19.856Z,24.10
2022-08-20T11:01:43.498Z,24.10
2022-08-20T11:04:07.254Z,24.10
2022-08-20T11:06:32.092Z,24.10
2022-08-20T11:08:56.996Z,24.30
2022-08-20T11:11:20.850Z,24.50
2022-08-20T11:13:45.887Z,24.50
2022-08-20T11:16:09.548Z,24.50
2022-08-20T11:18:34.149Z,24.50
2022-08-20T11:20:58.085Z,24.60
2022-08-20T11:23:21.817Z,24.60
2022-08-20T11:25:45.475Z,24.80
2022-08-20T11:28:09.354Z,24.90
2022-08-20T11:30:37.395Z,24.90
2022-08-20T11:33:02.931Z,24.90
2022-08-20T11:35:48.979Z,25.00
2022-08-20T11:38:12.473Z,25.20
2022-08-20T11:40:36.132Z,25.10
2022-08-20T11:43:17.011Z,25.00
2022-08-20T11:45:43.378Z,25.10
2022-08-20T11:48:07.199Z,25.10
2022-08-20T11:50:30.881Z,25.00
2022-08-20T11:52:54.486Z,25.20
2022-08-20T11:55:19.336Z,25.10
2022-08-20T11:57:48.815Z,25.00
2022-08-20T12:00:17.087Z,25.10
2022-08-20T12:02:42.910Z,25.10
2022-08-20T12:05:08.510Z,25.20
2022-08-20T12:07:32.124Z,25.20
2022-08-20T12:09:55.927Z,25.30
2022-08-20T12:12:23.376Z,25.20
2022-08-20T12:14:47.130Z,25.10
2022-08-20T12:17:11.616Z,25.20
2022-08-20T12:19:39.344Z,25.10
2022-08-20T12:22:21.308Z,25.00
2022-08-20T12:24:47.187Z,25.20
2022-08-20T12:27:12.527Z,25.00
2022-08-20T12:29:36.227Z,24.80
2022-08-20T12:32:00.880Z,24.80
2022-08-20T12:34:24.563Z,24.80
2022-08-20T12:36:49.577Z,24.80
2022-08-20T12:39:13.288Z,24.80
2022-08-20T12:41:36.931Z,24.90
2022-08-20T12:44:04.935Z,24.90
2022-08-20T12:46:28.576Z,24.70
2022-08-20T12:48:53.490Z,24.70
2022-08-20T12:51:17.102Z,24.60
2022-08-20T12:53:42.134Z,24.60
2022-08-20T12:56:06.810Z,24.50
2022-08-20T12:58:30.506Z,24.60
2022-08-20T13:00:54.271Z,24.30
2022-08-20T13:03:17.955Z,24.20
2022-08-20T13:05:42.441Z,24.30
2022-08-20T13:08:09.385Z,24.20
2022-08-20T13:10:37.325Z,24.00
2022-08-20T13:13:03.106Z,24.20
2022-08-20T13:15:27.481Z,24.10
2022-08-20T13:17:53.793Z,24.10
2022-08-20T13:20:20.015Z,24.20
2022-08-20T13:22:44.432Z,24.10
2022-08-20T13:25:10.348Z,24.20
2022-08-20T13:27:38.341Z,24.20
2022-08-20T13:30:01.971Z,24.20
2022-08-20T13:32:25.722Z,24.10
2022-08-20T13:34:49.447Z,23.90
2022-08-20T13:37:15.007Z,23.90
2022-08-20T13:39:40.741Z,23.80
2022-08-20T13:42:04.524Z,23.70
2022-08-20T13:44:32.940Z,23.80
2022-08-20T13:46:57.059Z,23.60
2022-08-20T13:49:20.692Z,23.60
2022-08-20T13:51:44.407Z,23.60
2022-08-20T13:54:10.840Z,23.70
2022-08-20T13:56:34.868Z,23.70
2022-08-20T13:58:58.504Z,23.60
2022-08-20T14:01:23.632Z,23.60
2022-08-20T14:03:47.893Z,23.60
2022-08-20T14:06:12.330Z,23.50
2022-08-20T14:08:35.959Z,23.50
2022-08-20T14:10:59.714Z,23.50
2022-08-20T14:13:26.215Z,23.40
2022-08-20T14:15:49.994Z,23.40
2022-08-20T14:18:16.700Z,23.40
2022-08-20T14:20:40.492Z,23.30
2022-08-20T14:23:04.656Z,23.20
2022-08-20T14:25:29.092Z,23.20
2022-08-20T14:27:53.400Z,23.20
2022-08-20T14:30:21.719Z,23.10
2022-08-20T14:32:45.480Z,23.10
2022-08-20T14:35:11.912Z,23.10
2022-08-20T14:37:39.062Z,23.10
2022-08-20T14:40:07.467Z,23.10
2022-08-20T14:42:31.894Z,23.10
2022-08-20T14:44:56.464Z,23.10
2022-08-20T14:47:23.230Z,23.00
2022-08-20T14:49:48.252Z,23.10
2022-08-20T14:52:14.270Z,23.00
2022-08-20T14:54:38.211Z,23.00
2022-08-20T14:57:02.352Z,23.00
2022-08-20T14:59:26.037Z,23.00
2022-08-20T15:01:49.671Z,23.00
2022-08-20T15:04:13.359Z,23.00
2022-08-20T15:06:38.724Z,23.00
2022-08-20T15:09:03.891Z,23.10
2022-08-20T15:11:33.601Z,23.10
2022-08-20T15:13:58.214Z,23.10
2022-08-20T15:16:21.839Z,23.20
2022-08-20T15:18:45.557Z,23.20
2022-08-20T15:21:10.293Z,23.20
2022-08-20T15:23:34.065Z,23.00
2022-08-20T15:25:59.291Z,23.00
2022-08-20T15:28:23.036Z,23.00
2022-08-20T15:30:46.665Z,22.80
2022-08-20T15:33:11.809Z,22.80
2022-08-20T15:35:35.466Z,22.80
2022-08-20T15:38:00.766Z,22.80
2022-08-20T15:40:28.472Z,22.90
2022-08-20T15:42:53.897Z,22.90
2022-08-20T15:45:21.680Z,22.90
2022-08-20T15:48:01.087Z,22.90
2022-08-20T15:50:45.478Z,22.80
2022-08-20T15:53:19.130Z,22.80
2022-08-20T15:55:55.371Z,22.90
2022-08-20T15:58:32.896Z,23.00
2022-08-20T16:01:24.509Z,23.00
2022-08-20T16:04:29.979Z,23.00
2022-08-20T16:06:59.140Z,23.00
2022-08-20T16:09:48.710Z,23.00
2022-08-20T16:12:19.035Z,23.00
2022-08-20T16:14:48.483Z,23.10
2022-08-20T16:17:17.155Z,23.00
2022-08-20T16:19:54.364Z,23.10
2022-08-20T16:22:20.951Z,23.00
2022-08-20T16:24:44.667Z,23.10
2022-08-20T16:27:15.991Z,23.10
2022-08-20T16:29:52.454Z,23.00
2022-08-20T16:32:34.827Z,23.00
2022-08-20T16:35:05.488Z,23.00
2022-08-20T16:37:47.067Z,23.00
2022-08-20T16:40:24.349Z,23.00
2022-08-20T16:42:52.302Z,23.00
2022-08-20T16:45:22.995Z,23.00
2022-08-20T16:47:49.075Z,22.90
2022-08-20T16:50:19.887Z,22.90
2022-08-20T16:52:46.901Z,22.90
2022-08-20T16:55:10.823Z,22.90
2022-08-20T16:57:34.579Z,22.80
2022-08-20T17:00:12.412Z,22.80
2022-08-20T17:02:38.618Z,22.80
2022-08-20T17:05:06.665Z,22.80
2022-08-20T17:07:49.413Z,22.80
2022-08-20T17:10:22.333Z,22.70
2022-08-20T17:12:47.087Z,22.80
2022-08-20T17:15:23.910Z,22.70
2022-08-20T17:17:49.119Z,22.70
2022-08-20T17:20:20.574Z,22.70
2022-08-20T17:22:48.539Z,22.70
2022-08-20T17:25:19.642Z,22.50
2022-08-20T17:27:43.339Z,22.40
2022-08-20T17:30:22.727Z,22.20
2022-08-20T17:33:00.654Z,22.20
2022-08-20T17:35:32.146Z,22.00
2022-08-20T17:37:56.710Z,21.90
2022-08-20T17:40:27.625Z,21.80
2022-08-20T17:42:56.964Z,21.70
2022-08-20T17:45:26.431Z,21.70
2022-08-20T17:47:50.233Z,21.60
2022-08-20T17:50:22.000Z,21.50
2022-08-20T17:52:50.725Z,21.50
2022-08-20T17:55:14.988Z,21.50
2022-08-20T17:57:43.962Z,21.50
2022-08-20T18:00:14.353Z,21.50
2022-08-20T18:02:38.003Z,21.40
2022-08-20T18:05:02.164Z,21.40
2022-08-20T18:07:31.307Z,21.40
2022-08-20T18:10:01.744Z,21.40
2022-08-20T18:12:35.350Z,21.40
2022-08-20T18:15:07.745Z,21.30
2022-08-20T18:17:58.083Z,21.20
2022-08-20T18:21:10.671Z,21.20
2022-08-20T18:23:41.334Z,21.10
2022-08-20T18:26:11.360Z,21.10
2022-08-20T18:28:39.374Z,21.10
2022-08-20T18:31:07.509Z,21.10
2022-08-20T18:33:37.435Z,21.10
2022-08-20T18:36:09.641Z,21.10
2022-08-20T18:38:37.273Z,21.00
2022-08-20T18:41:10.291Z,21.00
2022-08-20T18:43:34.093Z,21.00
2022-08-20T18:45:57.967Z,21.00
2022-08-20T18:48:23.556Z,21.00
2022-08-20T18:50:55.141Z,21.00
2022-08-20T18:53:22.440Z,21.00
2022-08-20T18:56:00.132Z,20.90
2022-08-20T18:58:33.540Z,20.80
2022-08-20T19:00:57.390Z,20.80
2022-08-20T19:03:27.680Z,20.80
2022-08-20T19:06:21.037Z,20.70
2022-08-20T19:08:51.371Z,20.70
2022-08-20T19:11:43.287Z,20.70
2022-08-20T19:14:47.867Z,20.70
2022-08-20T19:17:18.128Z,20.60
2022-08-20T19:19:42.044Z,20.60
2022-08-20T19:22:06.599Z,20.60
2022-08-20T19:24:35.783Z,20.60
2022-08-20T19:27:05.596Z,20.60
2022-08-20T19:29:32.467Z,20.60
2022-08-20T19:32:00.083Z,20.60
2022-08-20T19:34:25.873Z,20.50
2022-08-20T19:36:56.578Z,20.50
2022-08-20T19:39:25.543Z,20.50
2022-08-20T19:41:57.029Z,20.50
2022-08-20T19:44:35.312Z,20.50
2022-08-20T19:47:00.086Z,20.50
2022-08-20T19:49:31.502Z,20.50
2022-08-20T19:52:13.816Z,20.50
2022-08-20T19:54:49.321Z,20.50
2022-08-20T19:57:13.355Z,20.40
2022-08-20T19:59:38.395Z,20.40
2022-08-20T20:02:20.425Z,20.40
2022-08-20T20:04:55.033Z,20.40
2022-08-20T20:07:23.388Z,20.40
2022-08-20T20:09:48.913Z,20.40
2022-08-20T20:12:22.584Z,20.30
2022-08-20T20:14:49.041Z,20.30
2022-08-20T20:17:22.949Z,20.30
2022-08-20T20:19:47.850Z,20.30
2022-08-20T20:22:19.626Z,20.30
2022-08-20T20:24:48.580Z,20.20
2022-08-20T20:27:21.718Z,20.20
2022-08-20T20:29:47.350Z,20.20
2022-08-20T20:32:20.953Z,20.20
2022-08-20T20:34:54.958Z,20.20
2022-08-20T20:37:44.637Z,20.20
2022-08-20T20:40:25.266Z,20.20
2022-08-20T20:43:01.867Z,20.20
2022-08-20T20:45:34.665Z,20.30
2022-08-20T20:47:58.543Z,20.20
2022-08-20T20:50:32.661Z,20.20
2022-08-20T20:52:57.226Z,20.30
2022-08-20T20:55:27.592Z,20.20
2022-08-20T20:57:51.775Z,20.20
2022-08-20T21:00:18.288Z,20.20
2022-08-20T21:02:44.024Z,20.20
2022-08-20T21:05:08.629Z,20.20
2022-08-20T21:07:32.323Z,20.20
2022-08-20T21:09:58.318Z,20.20
2022-08-20T21:12:22.387Z,20.20
2022-08-20T21:14:46.176Z,20.20
2022-08-20T21:17:14.586Z,20.20
2022-08-20T21:19:41.120Z,20.20
2022-08-20T21:22:09.312Z,20.20
2022-08-20T21:24:33.010Z,20.10
2022-08-20T21:26:58.495Z,20.20
2022-08-20T21:29:30.553Z,20.20
2022-08-20T21:31:56.400Z,20.20
2022-08-20T21:34:20.886Z,20.20
2022-08-20T21:36:46.650Z,20.20
2022-08-20T21:39:10.961Z,20.10
2022-08-20T21:41:35.491Z,20.10
2022-08-20T21:44:00.411Z,20.10
2022-08-20T21:46:25.236Z,20.10
2022-08-20T21:48:48.921Z,20.10
2022-08-20T21:51:12.598Z,20.10
2022-08-20T21:53:37.784Z,20.10
2022-08-20T21:56:01.487Z,20.10
2022-08-20T21:58:25.527Z,20.10
2022-08-20T22:00:55.250Z,20.10
2022-08-20T22:03:20.059Z,20.10
2022-08-20T22:05:44.182Z,20.10
2022-08-20T22:08:09.511Z,20.10
2022-08-20T22:10:34.617Z,20.10
2022-08-20T22:12:58.382Z,20.10
2022-08-20T22:15:22.228Z,20.10
2022-08-20T22:17:45.965Z,20.10
2022-08-20T22:20:11.043Z,20.10
2022-08-20T22:22:34.991Z,20.10
2022-08-20T22:24:58.686Z,20.10
2022-08-20T22:27:23.816Z,20.10
2022-08-20T22:29:47.430Z,20.10
2022-08-20T22:32:11.230Z,20.10
2022-08-20T22:34:36.967Z,20.10
2022-08-20T22:37:02.095Z,20.10
2022-08-20T22:39:25.856Z,20.10
2022-08-20T22:41:49.523Z,20.10
2022-08-20T22:44:14.547Z,20.10
2022-08-20T22:46:47.083Z,20.00
2022-08-20T22:49:17.238Z,20.00
2022-08-20T22:51:43.488Z,20.00
2022-08-20T22:54:10.333Z,20.00
2022-08-20T22:56:34.054Z,20.10
2022-08-20T22:58:59.549Z,20.10
2022-08-20T23:01:24.774Z,20.00
2022-08-20T23:03:48.511Z,20.10
2022-08-20T23:06:13.841Z,20.10
2022-08-20T23:08:37.930Z,20.10
2022-08-20T23:11:01.558Z,20.10
2022-08-20T23:13:25.198Z,20.00
2022-08-20T23:15:48.869Z,20.00
2022-08-20T23:18:17.902Z,20.00
2022-08-20T23:20:42.806Z,20.00
2022-08-20T23:23:07.751Z,20.00
2022-08-20T23:25:31.543Z,20.00
2022-08-20T23:28:04.206Z,20.00
2022-08-20T23:30:29.375Z,20.00
2022-08-20T23:32:53.404Z,20.00
2022-08-20T23:35:18.825Z,20.00
2022-08-20T23:37:46.583Z,19.90
2022-08-20T23:40:13.258Z,19.90
2022-08-20T23:42:37.011Z,19.90
2022-08-20T23:45:01.640Z,19.80
2022-08-20T23:47:25.403Z,19.80
2022-08-20T23:49:49.150Z,19.80
2022-08-20T23:52:14.203Z,19.80
2022-08-20T23:54:37.884Z,19.80
2022-08-20T23:57:01.638Z,19.80
2022-08-20T23:59:32.022Z,19.70
